Time;durP1;ratioP1;P1;durP2;ratioP2;P2;SDS_P1;SDS_P2;PMS_P1;PMS_P2;Temp;Humidity;BMP_temperature;BMP_pressure;BME280_temperature;BME280_humidity;BME280_pressure;Samples;Min_cycle;Max_cycle;Signal;HPM_P1;HPM_P2
2022/06/09 00:01:55;;;;;;;17.30;4.07;;;14.90;99.90;;;;;;4994393;28;20226;-67
2022/06/09 00:04:38;;;;;;;15.83;4.43;;;14.90;99.90;;;;;;4994274;28;20182;-68
2022/06/09 00:07:16;;;;;;;10.33;3.53;;;14.90;99.90;;;;;;4994212;28;20253;-68
2022/06/09 00:09:46;;;;;;;19.83;4.30;;;14.90;99.90;;;;;;4994122;28;20198;-68
2022/06/09 00:12:12;;;;;;;18.67;4.60;;;15.00;99.90;;;;;;4993973;28;20718;-67
2022/06/09 00:14:38;;;;;;;15.73;4.50;;;15.00;99.90;;;;;;4994023;28;20183;-67
2022/06/09 00:17:05;;;;;;;15.10;4.43;;;14.90;99.90;;;;;;4994028;28;20175;-67
2022/06/09 00:19:31;;;;;;;19.07;5.17;;;14.90;99.90;;;;;;4994049;28;20206;-67
2022/06/09 00:21:57;;;;;;;18.30;4.37;;;14.80;99.90;;;;;;4993998;28;20191;-67
2022/06/09 00:24:23;;;;;;;19.57;4.67;;;14.80;99.90;;;;;;4993466;28;20729;-68
2022/06/09 00:26:49;;;;;;;22.57;4.50;;;14.80;99.90;;;;;;4993960;28;20693;-68
2022/06/09 00:29:14;;;;;;;20.70;4.53;;;14.80;99.90;;;;;;4993944;28;20246;-67
2022/06/09 00:31:40;;;;;;;18.03;4.83;;;14.80;99.90;;;;;;4993875;28;20175;-68
2022/06/09 00:34:06;;;;;;;21.90;4.77;;;14.70;99.90;;;;;;4993790;28;20226;-68
2022/06/09 00:36:32;;;;;;;18.47;4.80;;;14.70;99.90;;;;;;4993994;28;20645;-67
2022/06/09 00:38:58;;;;;;;16.03;4.20;;;14.60;99.90;;;;;;4993481;28;20669;-66
2022/06/09 00:41:27;;;;;;;23.03;4.67;;;14.60;99.90;;;;;;4993960;28;20202;-68
2022/06/09 00:43:53;;;;;;;14.27;4.40;;;14.70;99.90;;;;;;4994189;28;20501;-67
2022/06/09 00:46:18;;;;;;;15.53;4.17;;;14.70;99.90;;;;;;4993762;28;20240;-67
2022/06/09 00:48:51;;;;;;;13.90;4.17;;;14.80;99.90;;;;;;4997167;28;20182;-68
2022/06/09 00:51:23;;;;;;;15.90;4.33;;;14.70;99.90;;;;;;4998010;28;20171;-68
2022/06/09 00:53:53;;;;;;;20.57;4.37;;;14.70;99.90;;;;;;4997435;28;20217;-67
2022/06/09 00:56:19;;;;;;;17.93;4.63;;;14.60;99.90;;;;;;4997530;28;20635;-68
2022/06/09 00:58:48;;;;;;;17.13;3.83;;;14.60;99.90;;;;;;4997655;28;20268;-67
2022/06/09 01:01:16;;;;;;;20.13;4.47;;;14.70;99.90;;;;;;4997645;28;20171;-67
2022/06/09 01:03:57;;;;;;;24.40;4.50;;;14.70;99.90;;;;;;4997721;28;20221;-67
2022/06/09 01:06:28;;;;;;;17.70;4.40;;;14.70;99.90;;;;;;4997555;28;20191;-67
2022/06/09 01:09:24;;;;;;;19.53;4.93;;;14.70;99.90;;;;;;4997239;28;20540;-67
2022/06/09 01:11:52;;;;;;;20.10;5.03;;;14.70;99.90;;;;;;4996813;28;20290;-67
2022/06/09 01:14:25;;;;;;;19.27;4.60;;;14.70;99.90;;;;;;4997327;28;20219;-67
2022/06/09 01:16:53;;;;;;;20.70;4.57;;;14.70;99.90;;;;;;4997519;28;20167;-68
2022/06/09 01:19:44;;;;;;;14.23;5.10;;;14.60;99.90;;;;;;4997302;28;20172;-68
2022/06/09 01:22:20;;;;;;;19.53;4.47;;;14.50;99.90;;;;;;4997377;28;20198;-69
2022/06/09 01:25:04;;;;;;;24.13;4.97;;;14.50;99.90;;;;;;4995600;28;20241;-67
2022/06/09 01:27:55;;;;;;;18.67;4.50;;;14.50;99.90;;;;;;4997124;28;20527;-68
2022/06/09 01:31:03;;;;;;;16.33;4.43;;;14.40;99.90;;;;;;4981058;28;20175;-68
2022/06/09 01:33:48;;;;;;;20.30;4.80;;;14.40;99.90;;;;;;4975399;28;20623;-67
2022/06/09 01:36:13;;;;;;;21.80;5.53;;;14.40;99.90;;;;;;4975360;28;20187;-68
2022/06/09 01:38:56;;;;;;;18.80;4.73;;;14.30;99.90;;;;;;4975049;28;20180;-68
2022/06/09 01:41:23;;;;;;;24.17;5.43;;;14.30;99.90;;;;;;4975553;28;20172;-68
2022/06/09 01:43:50;;;;;;;24.60;5.23;;;14.30;99.90;;;;;;4975424;28;20183;-67
2022/06/09 01:46:36;;;;;;;19.27;4.47;;;14.20;99.90;;;;;;4975191;28;20178;-67
2022/06/09 01:49:16;;;;;;;26.73;5.80;;;14.10;99.90;;;;;;4975256;28;20184;-67
2022/06/09 01:51:44;;;;;;;23.70;5.03;;;14.10;99.90;;;;;;4974881;28;20666;-67
2022/06/09 01:54:17;;;;;;;20.30;5.40;;;14.10;99.90;;;;;;4975060;28;20691;-66
2022/06/09 01:56:45;;;;;;;21.27;5.63;;;14.10;99.90;;;;;;4975006;28;20172;-67
2022/06/09 01:59:16;;;;;;;24.53;5.40;;;14.10;99.90;;;;;;4974778;28;20183;-66
2022/06/09 02:01:50;;;;;;;22.23;4.60;;;14.00;99.90;;;;;;4975220;28;20219;-66
2022/06/09 02:04:22;;;;;;;25.07;5.43;;;14.00;99.90;;;;;;4986386;28;20663;-67
2022/06/09 02:06:50;;;;;;;19.83;5.37;;;14.00;99.90;;;;;;4994800;28;20175;-67
2022/06/09 02:09:16;;;;;;;20.47;5.40;;;13.80;99.90;;;;;;4996309;28;20217;-67
2022/06/09 02:11:51;;;;;;;20.97;5.10;;;13.80;99.90;;;;;;4996196;28;20195;-67
2022/06/09 02:14:19;;;;;;;19.63;5.40;;;13.70;99.90;;;;;;4996214;28;20245;-67
2022/06/09 02:16:45;;;;;;;24.53;5.90;;;13.70;99.90;;;;;;4996240;28;20172;-68
2022/06/09 02:19:11;;;;;;;22.57;5.33;;;13.70;99.90;;;;;;4995034;28;20189;-68
2022/06/09 02:21:38;;;;;;;21.10;5.17;;;13.60;99.90;;;;;;4995763;28;20175;-68
2022/06/09 02:24:04;;;;;;;18.87;5.07;;;13.60;99.90;;;;;;4995799;28;20231;-68
2022/06/09 02:26:30;;;;;;;22.13;5.40;;;13.60;99.90;;;;;;4996076;28;20175;-67
2022/06/09 02:28:56;;;;;;;17.67;5.27;;;13.60;99.90;;;;;;4994605;28;20190;-67
2022/06/09 02:31:23;;;;;;;28.33;5.60;;;13.60;99.90;;;;;;4996151;28;20182;-67
2022/06/09 02:33:50;;;;;;;26.63;5.97;;;13.50;99.90;;;;;;4995842;28;20207;-67
2022/06/09 02:36:17;;;;;;;21.03;5.80;;;13.50;99.90;;;;;;4995392;28;20202;-67
2022/06/09 02:38:42;;;;;;;24.90;5.50;;;13.50;99.90;;;;;;4996107;28;20186;-67
2022/06/09 02:41:08;;;;;;;20.53;5.57;;;13.50;99.90;;;;;;4995605;28;20175;-67
2022/06/09 02:43:34;;;;;;;23.40;5.90;;;13.50;99.90;;;;;;4995698;28;20175;-66
2022/06/09 02:46:01;;;;;;;18.33;5.00;;;13.40;99.90;;;;;;4994299;28;20510;-66
2022/06/09 02:48:27;;;;;;;26.67;5.90;;;13.30;99.90;;;;;;4995742;28;20183;-67
2022/06/09 02:50:52;;;;;;;22.30;5.93;;;13.30;99.90;;;;;;4995099;28;20679;-66
2022/06/09 02:53:20;;;;;;;20.37;6.00;;;13.40;99.90;;;;;;4995252;28;20362;-68
2022/06/09 02:55:46;;;;;;;26.13;6.23;;;13.30;99.90;;;;;;4995389;28;20222;-67
2022/06/09 02:58:12;;;;;;;24.70;5.70;;;13.30;99.90;;;;;;4995469;28;20221;-67
2022/06/09 03:00:38;;;;;;;19.87;5.43;;;13.30;99.90;;;;;;4995477;28;20181;-67
2022/06/09 03:03:07;;;;;;;23.07;5.67;;;13.30;99.90;;;;;;4995336;28;20295;-67
2022/06/09 03:05:35;;;;;;;19.93;6.00;;;13.30;99.90;;;;;;4995453;28;20187;-68
2022/06/09 03:08:02;;;;;;;22.73;5.67;;;13.20;99.90;;;;;;4995524;28;20205;-66
2022/06/09 03:10:28;;;;;;;25.03;6.23;;;13.30;99.90;;;;;;4994755;28;20203;-68
2022/06/09 03:12:54;;;;;;;21.13;5.67;;;13.30;99.90;;;;;;4995067;28;20203;-66
2022/06/09 03:15:22;;;;;;;26.03;6.07;;;13.30;99.90;;;;;;4993990;28;20183;-67
2022/06/09 03:17:48;;;;;;;28.20;6.33;;;13.30;99.90;;;;;;4995007;28;20175;-67
2022/06/09 03:20:18;;;;;;;20.17;5.37;;;13.20;99.90;;;;;;4994271;28;20175;-67
2022/06/09 03:22:44;;;;;;;24.07;6.07;;;13.20;99.90;;;;;;4994853;28;20179;-67
2022/06/09 03:25:10;;;;;;;21.23;5.23;;;13.20;99.90;;;;;;4994507;28;20226;-66
2022/06/09 03:27:36;;;;;;;22.63;6.37;;;13.20;99.90;;;;;;4994850;28;20187;-67
2022/06/09 03:30:02;;;;;;;18.50;5.87;;;13.30;99.90;;;;;;4994963;28;20167;-66
2022/06/09 03:32:28;;;;;;;27.60;6.10;;;13.30;99.90;;;;;;4994572;28;20203;-68
2022/06/09 03:34:54;;;;;;;18.60;5.30;;;13.30;99.90;;;;;;4994153;28;20179;-68
2022/06/09 03:37:20;;;;;;;24.47;6.03;;;13.30;99.90;;;;;;4995152;28;20179;-66
2022/06/09 03:39:46;;;;;;;23.53;5.90;;;13.30;99.90;;;;;;4994659;28;20190;-68
2022/06/09 03:42:11;;;;;;;24.27;6.27;;;13.30;99.90;;;;;;4994026;28;20613;-68
2022/06/09 03:44:37;;;;;;;22.83;5.80;;;13.40;99.90;;;;;;4994385;28;20180;-67
2022/06/09 03:47:03;;;;;;;21.53;6.23;;;13.30;99.90;;;;;;4994264;28;20709;-68
2022/06/09 03:49:28;;;;;;;22.30;6.17;;;13.40;99.90;;;;;;4994080;28;20183;-66
2022/06/09 03:51:54;;;;;;;19.43;5.40;;;13.40;99.90;;;;;;4993961;28;20238;-68
2022/06/09 03:54:19;;;;;;;24.77;6.37;;;13.50;99.90;;;;;;4993469;28;20214;-66
2022/06/09 03:56:45;;;;;;;21.17;5.90;;;13.70;99.90;;;;;;4994212;28;20179;-66
2022/06/09 03:59:11;;;;;;;21.43;5.40;;;13.80;99.90;;;;;;4993089;28;20183;-66
2022/06/09 04:01:37;;;;;;;18.33;5.37;;;14.10;99.90;;;;;;4994123;28;20269;-66
2022/06/09 04:04:03;;;;;;;22.87;5.57;;;14.20;99.90;;;;;;4993644;28;20266;-67
2022/06/09 04:06:29;;;;;;;20.80;5.20;;;14.40;99.90;;;;;;4994048;28;20225;-66
2022/06/09 04:08:54;;;;;;;23.30;5.03;;;14.60;99.90;;;;;;4993742;28;20183;-67
2022/06/09 04:11:21;;;;;;;19.80;5.37;;;14.90;99.90;;;;;;4993517;28;20226;-68
2022/06/09 04:13:47;;;;;;;19.73;5.17;;;14.90;99.90;;;;;;4993992;28;20218;-67
2022/06/09 04:16:23;;;;;;;16.73;4.87;;;15.10;99.90;;;;;;4993435;28;20180;-67
2022/06/09 04:18:49;;;;;;;18.10;4.70;;;15.50;97.30;;;;;;4993907;28;20254;-68
2022/06/09 04:21:14;;;;;;;17.30;4.90;;;15.80;76.30;;;;;;4993497;28;20180;-68
2022/06/09 04:23:40;;;;;;;13.40;4.50;;;16.20;63.80;;;;;;4992761;28;20214;-67
2022/06/09 04:26:05;;;;;;;18.50;4.50;;;16.50;39.10;;;;;;4993530;28;20261;-67
2022/06/09 04:28:31;;;;;;;17.07;4.23;;;16.80;26.90;;;;;;4993705;28;20172;-67
2022/06/09 04:30:57;;;;;;;18.60;4.90;;;16.80;21.40;;;;;;4993208;28;20622;-68
2022/06/09 04:33:22;;;;;;;15.73;4.67;;;16.60;22.10;;;;;;4993414;28;20210;-67
2022/06/09 04:35:48;;;;;;;15.67;4.70;;;16.40;31.90;;;;;;4993584;28;20175;-68
2022/06/09 04:38:14;;;;;;;18.07;4.50;;;15.90;47.10;;;;;;4993386;28;20183;-68
2022/06/09 04:40:41;;;;;;;13.10;4.20;;;15.80;59.00;;;;;;4993477;28;20580;-68
2022/06/09 04:43:09;;;;;;;18.40;4.70;;;15.60;68.80;;;;;;4992266;28;20195;-68
2022/06/09 04:45:36;;;;;;;18.50;4.83;;;15.60;78.90;;;;;;4992774;28;20222;-67
2022/06/09 04:48:02;;;;;;;16.30;4.93;;;15.60;75.80;;;;;;4993524;28;20179;-67
2022/06/09 04:50:29;;;;;;;16.43;4.40;;;15.50;79.70;;;;;;4993193;28;20226;-66
2022/06/09 04:52:54;;;;;;;15.00;4.83;;;15.50;83.20;;;;;;4992148;28;20238;-67
2022/06/09 04:55:20;;;;;;;14.87;4.67;;;15.80;82.00;;;;;;4992868;28;20610;-69
2022/06/09 04:57:46;;;;;;;15.83;4.47;;;15.90;75.10;;;;;;4993208;28;20234;-68
2022/06/09 05:00:14;;;;;;;15.57;4.30;;;16.70;52.00;;;;;;4992493;28;20207;-68
2022/06/09 05:02:40;;;;;;;18.95;4.15;;;17.70;23.10;;;;;;4992940;28;20210;-68
2022/06/09 05:05:07;;;;;;;15.27;4.55;;;19.30;1.00;;;;;;4992768;28;20206;-69
2022/06/09 05:07:33;;;;;;;13.00;3.80;;;20.60;1.00;;;;;;4992455;28;20175;-69
2022/06/09 05:09:59;;;;;;;14.27;4.20;;;21.30;99.90;;;;;;4992851;28;20164;-68
2022/06/09 05:12:24;;;;;;;13.30;4.03;;;21.80;1.00;;;;;;4991296;28;20584;-68
2022/06/09 05:14:52;;;;;;;17.80;4.53;;;21.70;99.90;;;;;;4992195;28;20279;-68
2022/06/09 05:17:19;;;;;;;13.10;4.05;;;21.80;99.90;;;;;;4992667;28;20167;-68
2022/06/09 05:19:45;;;;;;;19.48;4.60;;;21.10;99.90;;;;;;4990927;28;20175;-68
2022/06/09 05:22:11;;;;;;;14.73;4.47;;;20.40;1.00;;;;;;4992661;28;20167;-68
2022/06/09 05:24:37;;;;;;;13.05;4.13;;;19.80;1.00;;;;;;4991738;28;20242;-67
2022/06/09 05:27:03;;;;;;;14.57;4.13;;;19.50;1.00;;;;;;4992419;28;20639;-69
2022/06/09 05:29:29;;;;;;;13.63;4.65;;;19.30;1.00;;;;;;4991396;28;20622;-67
2022/06/09 05:31:54;;;;;;;13.40;3.90;;;19.00;1.00;;;;;;4992571;28;20186;-68
2022/06/09 05:34:20;;;;;;;18.20;4.28;;;18.50;1.00;;;;;;4994544;28;20623;-68
2022/06/09 05:36:46;;;;;;;14.68;4.07;;;18.10;1.00;;;;;;4995872;28;20171;-68
2022/06/09 05:44:51;;;;;;;14.00;4.20;;;17.40;1.00;;;;;;4996266;28;20188;-68
2022/06/09 05:47:20;;;;;;;14.60;3.92;;;17.30;1.00;;;;;;4995520;28;20697;-68
2022/06/09 05:49:47;;;;;;;16.67;4.20;;;17.30;1.00;;;;;;4995158;28;20167;-68
2022/06/09 05:52:14;;;;;;;20.57;4.10;;;17.40;1.00;;;;;;4995648;28;20220;-68
2022/06/09 05:54:39;;;;;;;18.00;4.20;;;17.20;1.00;;;;;;4995544;28;20246;-68
2022/06/09 05:57:05;;;;;;;13.52;3.70;;;17.10;1.00;;;;;;4993847;28;20191;-68
2022/06/09 05:59:30;;;;;;;12.07;3.88;;;16.90;1.00;;;;;;4994760;28;20207;-68
2022/06/09 06:01:56;;;;;;;18.80;4.05;;;17.10;6.00;;;;;;4995636;28;20186;-68
2022/06/09 06:04:22;;;;;;;16.20;4.55;;;17.30;1.00;;;;;;4994293;28;20254;-69
2022/06/09 06:06:47;;;;;;;14.98;4.38;;;17.60;1.00;;;;;;4993848;28;20274;-68
2022/06/09 06:09:18;;;;;;;18.00;4.45;;;17.80;1.00;;;;;;4995101;28;20167;-68
2022/06/09 06:11:45;;;;;;;15.88;4.32;;;18.10;1.00;;;;;;4995037;28;20195;-69
2022/06/09 06:14:11;;;;;;;18.55;4.57;;;17.80;1.00;;;;;;4994821;28;20235;-68
2022/06/09 06:16:38;;;;;;;21.75;4.38;;;17.80;1.00;;;;;;4995082;28;20213;-68
2022/06/09 06:19:05;;;;;;;15.70;4.53;;;17.90;1.00;;;;;;4993943;28;20599;-68
2022/06/09 06:21:31;;;;;;;20.45;4.68;;;17.80;1.00;;;;;;4995221;28;20313;-68
2022/06/09 06:23:57;;;;;;;16.35;4.90;;;17.90;1.00;;;;;;4994154;28;20219;-68
2022/06/09 06:26:22;;;;;;;15.95;4.30;;;17.90;1.00;;;;;;4995165;28;20250;-69
2022/06/09 06:28:48;;;;;;;19.33;4.47;;;17.80;1.00;;;;;;4994214;28;20581;-68
2022/06/09 06:31:14;;;;;;;13.73;4.30;;;17.60;1.00;;;;;;4994774;28;20262;-70
2022/06/09 06:33:40;;;;;;;14.60;4.07;;;17.80;1.00;;;;;;4994407;28;20203;-71
2022/06/09 06:36:06;;;;;;;13.48;4.03;;;18.70;1.00;;;;;;4993426;28;20255;-69
2022/06/09 06:38:31;;;;;;;16.42;4.32;;;20.00;1.00;;;;;;4994500;28;20530;-69
2022/06/09 06:40:57;;;;;;;13.57;3.58;;;20.70;99.90;;;;;;4993893;28;20238;-69
2022/06/09 06:43:23;;;;;;;17.33;4.18;;;20.40;99.90;;;;;;4994719;28;20206;-69
2022/06/09 06:45:49;;;;;;;10.38;3.47;;;20.60;99.90;;;;;;4988595;28;20206;-71
2022/06/09 06:48:15;;;;;;;13.13;3.72;;;21.80;1.00;;;;;;4993766;28;20230;-70
2022/06/09 06:50:41;;;;;;;14.93;3.95;;;23.60;1.00;;;;;;4994060;28;20178;-70
2022/06/09 06:53:12;;;;;;;15.93;4.43;;;25.50;99.90;;;;;;4993685;28;20207;-71
2022/06/09 06:55:37;;;;;;;17.35;4.10;;;25.60;1.00;;;;;;4994157;28;20179;-70
2022/06/09 06:58:03;;;;;;;13.07;3.80;;;25.30;1.00;;;;;;4993312;28;20171;-70
2022/06/09 07:00:29;;;;;;;12.70;4.35;;;24.30;99.90;;;;;;4994029;28;20179;-71
2022/06/09 07:02:54;;;;;;;18.10;4.25;;;24.20;1.00;;;;;;4993299;28;20627;-72
2022/06/09 07:05:21;;;;;;;12.85;3.70;;;25.30;99.90;;;;;;4993770;28;20175;-72
2022/06/09 07:07:47;;;;;;;9.38;3.75;;;26.70;1.00;;;;;;4992443;28;20326;-71
2022/06/09 07:10:14;;;;;;;13.80;3.83;;;27.30;1.00;;;;;;4991968;28;20691;-72
2022/06/09 07:12:40;;;;;;;11.88;3.53;;;28.30;99.90;;;;;;4979460;28;20183;-72
2022/06/09 07:15:07;;;;;;;13.45;3.58;;;27.70;99.90;;;;;;4974130;28;20199;-71
2022/06/09 07:17:33;;;;;;;12.13;3.53;;;28.20;99.90;;;;;;4986435;28;20183;-71
2022/06/09 07:19:58;;;;;;;15.82;3.72;;;27.90;99.90;;;;;;4993847;28;20175;-71
2022/06/09 07:22:24;;;;;;;12.55;3.88;;;26.90;99.90;;;;;;4993357;28;20182;-71
2022/06/09 07:24:50;;;;;;;12.98;3.90;;;27.00;99.90;;;;;;4986493;28;20856;-72
2022/06/09 07:27:16;;;;;;;10.70;3.83;;;27.00;99.90;;;;;;4982073;28;20679;-71
2022/06/09 07:29:42;;;;;;;12.82;3.78;;;27.20;99.90;;;;;;4980755;28;20172;-71
2022/06/09 07:32:09;;;;;;;9.43;3.33;;;26.70;99.90;;;;;;4979876;28;20183;-71
2022/06/09 07:34:35;;;;;;;12.10;3.65;;;27.00;99.90;;;;;;4981238;28;20223;-71
2022/06/09 07:37:02;;;;;;;8.77;3.65;;;27.20;99.90;;;;;;4978304;28;20258;-71
2022/06/09 07:39:27;;;;;;;10.98;3.70;;;27.30;99.90;;;;;;4980669;28;20210;-71
2022/06/09 07:41:53;;;;;;;9.43;3.55;;;27.20;99.90;;;;;;4978521;28;20214;-70
2022/06/09 07:44:19;;;;;;;11.52;4.03;;;25.90;99.90;;;;;;4977486;28;20184;-71
2022/06/09 07:46:45;;;;;;;11.10;3.28;;;24.80;1.00;;;;;;4980712;28;20180;-71
2022/06/09 07:49:10;;;;;;;11.25;3.90;;;24.90;28.40;;;;;;4984345;28;20226;-69
2022/06/09 07:51:37;;;;;;;11.40;4.40;;;23.70;1.00;;;;;;4975416;28;20179;-70
2022/06/09 07:54:03;;;;;;;7.82;3.50;;;23.30;1.00;;;;;;4977832;28;20222;-70
2022/06/09 07:56:32;;;;;;;11.10;4.07;;;23.40;1.00;;;;;;4985136;28;20176;-71
2022/06/09 07:58:58;;;;;;;10.40;4.03;;;24.50;1.00;;;;;;4981649;28;20175;-71
2022/06/09 08:01:24;;;;;;;11.00;3.90;;;24.80;77.60;;;;;;4986289;28;20255;-71
2022/06/09 08:03:50;;;;;;;10.93;4.15;;;25.10;1.00;;;;;;4980050;28;20265;-69
2022/06/09 08:06:16;;;;;;;11.45;3.95;;;24.50;90.70;;;;;;4979289;28;20183;-70
2022/06/09 08:08:42;;;;;;;9.35;3.80;;;24.10;1.00;;;;;;4995365;28;20178;-71
2022/06/09 08:11:09;;;;;;;12.55;4.85;;;23.70;1.00;;;;;;4991715;28;20203;-71
2022/06/09 08:13:35;;;;;;;10.30;3.83;;;23.50;99.90;;;;;;4984375;28;20237;-69
2022/06/09 08:16:02;;;;;;;13.45;4.85;;;23.30;99.90;;;;;;4976977;28;20179;-69
2022/06/09 08:18:28;;;;;;;12.20;4.15;;;23.30;1.00;;;;;;4973894;28;20223;-70
2022/06/09 08:20:55;;;;;;;16.10;4.40;;;23.20;1.00;;;;;;4982638;28;20180;-70
2022/06/09 08:23:23;;;;;;;9.77;3.90;;;22.90;1.00;;;;;;4977574;28;20495;-71
2022/06/09 08:25:51;;;;;;;12.85;3.60;;;23.00;1.00;;;;;;4988722;28;20186;-71
2022/06/09 08:28:18;;;;;;;11.95;4.05;;;24.00;99.90;;;;;;4975370;28;20594;-71
2022/06/09 08:30:46;;;;;;;15.25;3.80;;;24.20;1.00;;;;;;4981146;28;20184;-70
2022/06/09 08:33:12;;;;;;;10.18;3.60;;;23.90;99.90;;;;;;4985331;28;20204;-71
2022/06/09 08:35:38;;;;;;;8.57;3.30;;;23.90;1.00;;;;;;4974813;28;20187;-71
2022/06/09 08:38:05;;;;;;;11.25;3.78;;;24.60;1.00;;;;;;4978066;28;20278;-71
2022/06/09 08:40:37;;;;;;;9.60;3.80;;;25.80;1.00;;;;;;4974725;28;20176;-71
2022/06/09 08:43:56;;;;;;;9.73;3.65;;;26.80;1.00;;;;;;4972786;28;20164;-71
2022/06/09 08:46:40;;;;;;;8.48;3.70;;;27.60;99.90;;;;;;4971244;28;20188;-71
2022/06/09 08:49:34;;;;;;;10.68;3.60;;;26.80;99.90;;;;;;4972160;28;20287;-71
2022/06/09 08:52:23;;;;;;;7.10;3.20;;;26.80;1.00;;;;;;4974149;28;20227;-73
2022/06/09 08:54:50;;;;;;;11.05;4.22;;;28.30;99.90;;;;;;4972509;28;20207;-72
2022/06/09 08:57:23;;;;;;;8.52;3.30;;;29.50;99.90;;;;;;4975749;28;20539;-73
2022/06/09 08:59:56;;;;;;;7.72;3.17;;;29.50;99.90;;;;;;4976383;28;20640;-71
2022/06/09 09:02:38;;;;;;;9.55;3.38;;;29.10;99.90;;;;;;4979829;28;20175;-70
2022/06/09 09:05:32;;;;;;;8.70;3.03;;;29.00;99.90;;;;;;4979116;28;20222;-71
2022/06/09 09:08:01;;;;;;;8.70;3.47;;;27.40;99.90;;;;;;4991241;28;20363;-71
2022/06/09 09:10:44;;;;;;;6.93;2.97;;;26.50;99.90;;;;;;4985998;28;20606;-71
2022/06/09 09:13:38;;;;;;;11.40;3.10;;;25.80;1.00;;;;;;4987055;28;20210;-71
2022/06/09 09:16:19;;;;;;;11.50;3.63;;;24.00;99.90;;;;;;4973248;28;20271;-71
2022/06/09 09:18:58;;;;;;;9.63;3.33;;;23.10;1.00;;;;;;4996051;28;20182;-70
2022/06/09 09:21:47;;;;;;;9.82;3.30;;;23.10;1.00;;;;;;4982388;28;20188;-70
2022/06/09 09:24:24;;;;;;;4.95;3.40;;;23.40;99.90;;;;;;4979434;28;20358;-71
2022/06/09 09:27:22;;;;;;;8.30;3.90;;;23.60;99.90;;;;;;4982815;28;20175;-70
2022/06/09 09:30:02;;;;;;;9.57;3.88;;;23.80;1.00;;;;;;4992836;28;20199;-70
2022/06/09 09:32:40;;;;;;;11.85;3.78;;;23.30;1.00;;;;;;4980173;28;20195;-70
2022/06/09 09:35:11;;;;;;;8.45;3.70;;;22.60;1.00;;;;;;4988529;28;20195;-69
2022/06/09 09:37:44;;;;;;;14.88;4.80;;;22.10;1.00;;;;;;4980546;28;20186;-70
2022/06/09 09:40:17;;;;;;;9.25;4.35;;;21.70;1.00;;;;;;4982060;28;20175;-70
2022/06/09 09:42:45;;;;;;;13.10;4.82;;;21.60;1.00;;;;;;4977886;28;20242;-71
2022/06/09 09:45:11;;;;;;;12.63;4.43;;;20.80;1.00;;;;;;4976165;28;20191;-70
2022/06/09 09:47:59;;;;;;;12.20;4.80;;;20.50;1.00;;;;;;4978597;28;20619;-71
2022/06/09 09:51:00;;;;;;;11.30;4.68;;;20.30;1.00;;;;;;4995620;28;20195;-71
2022/06/09 09:53:36;;;;;;;10.52;4.55;;;20.00;1.00;;;;;;4966773;28;20222;-71
2022/06/09 09:56:17;;;;;;;10.75;4.18;;;20.00;1.00;;;;;;4980917;28;20282;-71
2022/06/09 09:58:48;;;;;;;13.10;4.82;;;20.10;1.00;;;;;;4975934;28;20191;-70
2022/06/09 10:01:17;;;;;;;10.73;4.55;;;20.50;1.00;;;;;;4981446;28;20627;-70
2022/06/09 10:09:50;;;;;;;9.57;3.53;;;22.00;1.00;;;;;;4984989;28;20191;-70
2022/06/09 10:12:27;;;;;;;7.60;3.30;;;23.10;99.90;;;;;;4979485;28;20188;-70
2022/06/09 10:15:04;;;;;;;6.25;2.65;;;25.00;99.90;;;;;;4981269;28;20269;-71
2022/06/09 10:17:53;;;;;;;6.15;2.53;;;26.20;1.00;;;;;;4976717;28;20176;-71
2022/06/09 10:20:25;;;;;;;5.60;2.60;;;26.80;1.00;;;;;;4974498;28;20207;-71
2022/06/09 10:23:17;;;;;;;6.28;2.60;;;27.10;1.00;;;;;;4976673;28;20176;-71
2022/06/09 10:26:11;;;;;;;8.18;2.97;;;26.20;1.00;;;;;;4983348;28;20222;-72
2022/06/09 10:28:47;;;;;;;5.85;2.38;;;25.80;42.20;;;;;;4975442;28;20172;-70
2022/06/09 10:31:33;;;;;;;7.55;2.97;;;25.20;99.90;;;;;;4983229;28;20197;-70
2022/06/09 10:34:22;;;;;;;9.13;2.67;;;24.80;1.00;;;;;;4995139;28;20211;-72
2022/06/09 10:36:48;;;;;;;3.47;2.55;;;25.50;1.00;;;;;;4995714;28;20175;-71
2022/06/09 10:39:20;;;;;;;10.73;2.85;;;25.50;1.00;;;;;;4994508;28;20630;-72
2022/06/09 10:41:54;;;;;;;5.30;2.40;;;25.50;1.00;;;;;;4994889;28;20175;-71
2022/06/09 10:44:26;;;;;;;8.75;2.75;;;25.50;1.00;;;;;;4983421;28;20708;-72
2022/06/09 10:55:59;;;;;;;6.57;2.40;;;25.70;1.00;;;;;;4974401;28;20175;-71
2022/06/09 10:58:33;;;;;;;5.55;2.35;;;25.70;1.00;;;;;;4986035;28;20282;-71
2022/06/09 11:00:59;;;;;;;7.90;2.63;;;24.80;1.00;;;;;;4995269;28;20180;-71
2022/06/09 11:03:36;;;;;;;9.43;3.88;;;25.00;1.00;;;;;;4982881;28;20521;-71
2022/06/09 11:06:14;;;;;;;7.72;2.70;;;24.60;1.00;;;;;;4979559;28;20187;-71
2022/06/09 11:09:15;;;;;;;7.90;3.10;;;24.00;1.00;;;;;;4987231;28;20183;-71
2022/06/09 11:11:53;;;;;;;6.35;3.70;;;24.00;99.90;;;;;;4989396;28;20206;-73
2022/06/09 11:14:46;;;;;;;8.30;2.70;;;25.20;1.00;;;;;;4986469;28;20301;-72
2022/06/09 11:17:15;;;;;;;9.75;2.60;;;25.90;1.00;;;;;;4986835;28;20206;-70
2022/06/09 11:19:59;;;;;;;8.18;2.80;;;26.20;99.90;;;;;;4989283;28;20175;-72
2022/06/09 11:22:24;;;;;;;6.05;3.25;;;26.60;99.90;;;;;;4988622;28;20196;-72
2022/06/09 11:25:14;;;;;;;7.75;3.28;;;27.00;99.90;;;;;;4981566;28;20226;-71
2022/06/09 11:28:18;;;;;;;7.00;3.55;;;27.20;99.90;;;;;;4973630;28;20184;-70
2022/06/09 11:31:09;;;;;;;7.28;3.00;;;27.20;99.90;;;;;;4981679;28;20188;-70
2022/06/09 11:34:04;;;;;;;7.85;2.90;;;26.20;99.90;;;;;;4983340;28;20211;-70
2022/06/09 11:36:45;;;;;;;4.47;2.72;;;24.40;1.00;;;;;;4974168;28;20220;-72
2022/06/09 11:39:48;;;;;;;6.72;3.40;;;24.10;28.30;;;;;;4975258;28;20650;-71
2022/06/09 11:42:30;;;;;;;5.30;3.03;;;23.50;99.90;;;;;;4977878;28;20488;-70
2022/06/09 11:45:00;;;;;;;7.47;3.22;;;23.00;1.00;;;;;;4990826;28;20190;-71
2022/06/09 11:47:33;;;;;;;9.95;3.28;;;23.40;1.00;;;;;;4984449;28;20171;-70
2022/06/09 11:50:04;;;;;;;5.07;2.70;;;23.40;99.90;;;;;;4976551;28;20183;-72
2022/06/09 11:52:42;;;;;;;7.45;3.03;;;23.70;99.90;;;;;;4985584;28;20640;-72
2022/06/09 11:55:19;;;;;;;12.45;6.10;;;23.90;99.90;;;;;;4974919;28;20187;-71
2022/06/09 11:57:52;;;;;;;10.10;3.33;;;24.40;1.00;;;;;;4996617;28;20194;-71
2022/06/09 12:00:27;;;;;;;20.13;10.70;;;24.60;1.00;;;;;;4990270;28;20181;-72
2022/06/09 12:03:02;;;;;;;9.10;3.13;;;24.60;1.00;;;;;;4977137;28;20176;-72
2022/06/09 12:05:52;;;;;;;8.63;3.28;;;24.80;1.00;;;;;;4993652;28;20225;-72
2022/06/09 12:08:28;;;;;;;12.38;3.20;;;25.20;1.00;;;;;;4973345;28;20168;-71
2022/06/09 12:10:58;;;;;;;5.88;3.25;;;25.50;1.00;;;;;;4973467;28;20196;-71
2022/06/09 12:13:26;;;;;;;5.85;3.25;;;25.30;99.90;;;;;;4973615;28;20211;-71
2022/06/09 12:15:58;;;;;;;9.73;3.10;;;25.20;99.90;;;;;;4973144;28;20247;-71
2022/06/09 12:18:40;;;;;;;9.73;4.32;;;24.50;1.00;;;;;;4972780;28;20179;-70
2022/06/09 12:21:16;;;;;;;6.82;2.70;;;24.40;1.00;;;;;;4982113;28;20557;-70
2022/06/09 12:23:49;;;;;;;7.90;2.97;;;24.20;99.90;;;;;;4980408;28;20210;-71
2022/06/09 12:26:16;;;;;;;7.80;3.13;;;24.10;1.00;;;;;;4975811;28;20180;-71
2022/06/09 12:28:55;;;;;;;7.68;3.25;;;24.20;1.00;;;;;;4976379;28;20180;-71
2022/06/09 12:31:24;;;;;;;8.05;3.67;;;23.90;1.00;;;;;;4973150;28;20187;-71
2022/06/09 12:34:00;;;;;;;9.63;3.67;;;23.90;1.00;;;;;;4972946;28;20263;-71
2022/06/09 12:36:37;;;;;;;8.88;3.20;;;23.90;1.00;;;;;;4973419;28;20180;-71
2022/06/09 12:39:15;;;;;;;8.50;3.53;;;23.70;1.00;;;;;;4972694;28;20203;-70
2022/06/09 12:41:43;;;;;;;6.45;3.47;;;23.60;1.00;;;;;;4973679;28;20226;-70
2022/06/09 12:44:15;;;;;;;6.60;3.17;;;23.60;1.00;;;;;;4972525;28;20190;-70
2022/06/09 12:46:41;;;;;;;13.27;3.22;;;23.70;1.00;;;;;;4972048;28;20187;-70
2022/06/09 12:49:16;;;;;;;6.95;3.35;;;23.80;1.00;;;;;;4978651;28;20179;-71
2022/06/09 12:51:42;;;;;;;9.23;3.10;;;23.80;1.00;;;;;;4985166;28;20206;-71
2022/06/09 12:54:38;;;;;;;7.43;3.20;;;23.40;1.00;;;;;;4980127;28;20694;-70
2022/06/09 12:57:14;;;;;;;8.55;3.60;;;23.80;1.00;;;;;;4976236;28;20168;-71
2022/06/09 12:59:41;;;;;;;6.78;3.00;;;23.70;1.00;;;;;;4973001;28;20180;-71
2022/06/09 13:02:29;;;;;;;6.70;3.03;;;23.70;1.00;;;;;;4978964;28;20189;-72
2022/06/09 13:05:01;;;;;;;9.75;3.10;;;23.90;1.00;;;;;;4985717;28;20215;-70
2022/06/09 13:07:28;;;;;;;10.57;3.10;;;24.30;1.00;;;;;;4988772;28;20188;-71
2022/06/09 13:10:19;;;;;;;6.53;2.47;;;24.60;1.00;;;;;;4983747;28;20218;-70
2022/06/09 13:12:53;;;;;;;9.35;3.80;;;24.80;99.90;;;;;;4972984;28;20186;-70
2022/06/09 13:15:37;;;;;;;6.75;2.50;;;24.80;99.90;;;;;;4972847;28;20184;-70
2022/06/09 13:18:11;;;;;;;11.38;3.20;;;24.80;99.90;;;;;;4985171;28;20183;-70
2022/06/09 13:20:44;;;;;;;6.57;3.40;;;24.90;99.90;;;;;;4992266;28;20164;-71
2022/06/09 13:23:13;;;;;;;7.65;3.17;;;25.10;99.90;;;;;;4976301;28;20183;-71
2022/06/09 13:25:40;;;;;;;7.03;2.45;;;25.00;99.90;;;;;;4978826;28;20779;-71